sensor_id;sensor_type;location;lat;lon;timestamp;pressure;altitude;pressure_sealevel;temperature;humidity
55263;BME280;41125;48.752;9.168;2023-04-26T00:00:15;96910.47;;;5.21;89.14
55263;BME280;41125;48.752;9.168;2023-04-26T00:00:50;96908.59;;;5.22;88.86
55263;BME280;41125;48.752;9.168;2023-04-26T00:01:23;96912.34;;;5.21;89.06
55263;BME280;41125;48.752;9.168;2023-04-26T00:01:57;96910.19;;;5.23;88.82
55263;BME280;41125;48.752;9.168;2023-04-26T00:03:36;96904.81;;;5.23;86.93
55263;BME280;41125;48.752;9.168;2023-04-26T00:04:10;96912.63;;;5.24;86.88
55263;BME280;41125;48.752;9.168;2023-04-26T00:04:41;96907.25;;;5.24;87.28
55263;BME280;41125;48.752;9.168;2023-04-26T00:05:12;96908.06;;;5.25;86.91
55263;BME280;41125;48.752;9.168;2023-04-26T00:05:44;96907.56;;;5.28;87.07
55263;BME280;41125;48.752;9.168;2023-04-26T00:06:16;96911.09;;;5.33;86.41
55263;BME280;41125;48.752;9.168;2023-04-26T00:06:48;96910.59;;;5.36;85.86
55263;BME280;41125;48.752;9.168;2023-04-26T00:07:20;96908.97;;;5.35;85.47
55263;BME280;41125;48.752;9.168;2023-04-26T00:08:00;96910.31;;;5.38;85.32
55263;BME280;41125;48.752;9.168;2023-04-26T00:08:31;96907.63;;;5.38;85.13
55263;BME280;41125;48.752;9.168;2023-04-26T00:09:02;96903.56;;;5.35;84.16
55263;BME280;41125;48.752;9.168;2023-04-26T00:09:35;96908.66;;;5.32;85.34
55263;BME280;41125;48.752;9.168;2023-04-26T00:10:07;96905.69;;;5.28;85.54
55263;BME280;41125;48.752;9.168;2023-04-26T00:10:39;96907.56;;;5.28;85.95
55263;BME280;41125;48.752;9.168;2023-04-26T00:11:10;96911.06;;;5.28;86.17
55263;BME280;41125;48.752;9.168;2023-04-26T00:11:45;96911.59;;;5.30;86.09
55263;BME280;41125;48.752;9.168;2023-04-26T00:12:17;96901.66;;;5.31;86.18
55263;BME280;41125;48.752;9.168;2023-04-26T00:12:48;96907.34;;;5.34;86.48
55263;BME280;41125;48.752;9.168;2023-04-26T00:13:19;96913.28;;;5.36;85.87
55263;BME280;41125;48.752;9.168;2023-04-26T00:13:51;96911.12;;;5.38;85.38
55263;BME280;41125;48.752;9.168;2023-04-26T00:14:22;96907.63;;;5.38;84.44
55263;BME280;41125;48.752;9.168;2023-04-26T00:14:53;96910.59;;;5.36;84.65
55263;BME280;41125;48.752;9.168;2023-04-26T00:15:24;96910.59;;;5.36;85.45
55263;BME280;41125;48.752;9.168;2023-04-26T00:16:00;96907.34;;;5.34;85.68
55263;BME280;41125;48.752;9.168;2023-04-26T00:16:31;96918.09;;;5.34;85.45
55263;BME280;41125;48.752;9.168;2023-04-26T00:17:05;96910.84;;;5.35;85.38
55263;BME280;41125;48.752;9.168;2023-04-26T00:17:36;96910.03;;;5.34;85.14
55263;BME280;41125;48.752;9.168;2023-04-26T00:18:08;96905.72;;;5.33;85.50
55263;BME280;41125;48.752;9.168;2023-04-26T00:18:39;96912.72;;;5.34;85.53
55263;BME280;41125;48.752;9.168;2023-04-26T00:19:10;96911.09;;;5.33;86.18
55263;BME280;41125;48.752;9.168;2023-04-26T00:19:43;96917.53;;;5.32;86.15
55263;BME280;41125;48.752;9.168;2023-04-26T00:20:15;96913.22;;;5.31;86.24
55263;BME280;41125;48.752;9.168;2023-04-26T00:20:46;96909.47;;;5.32;86.84
55263;BME280;41125;48.752;9.168;2023-04-26T00:21:18;96910.81;;;5.30;86.89
55263;BME280;41125;48.752;9.168;2023-04-26T00:21:49;96911.31;;;5.27;86.67
55263;BME280;41125;48.752;9.168;2023-04-26T00:22:20;96909.41;;;5.22;86.66
55263;BME280;41125;48.752;9.168;2023-04-26T00:22:51;96912.88;;;5.18;86.54
55263;BME280;41125;48.752;9.168;2023-04-26T00:23:23;96912.06;;;5.17;86.81
55263;BME280;41125;48.752;9.168;2023-04-26T00:23:55;96911.00;;;5.18;87.07
55263;BME280;41125;48.752;9.168;2023-04-26T00:24:26;96910.44;;;5.16;87.32
55263;BME280;41125;48.752;9.168;2023-04-26T00:24:57;96907.78;;;5.21;88.47
55263;BME280;41125;48.752;9.168;2023-04-26T00:25:29;96905.63;;;5.18;88.19
55263;BME280;41125;48.752;9.168;2023-04-26T00:26:00;96912.34;;;5.21;87.95
55263;BME280;41125;48.752;9.168;2023-04-26T00:26:31;96902.69;;;5.20;88.59
55263;BME280;41125;48.752;9.168;2023-04-26T00:27:04;96906.16;;;5.20;89.09
55263;BME280;41125;48.752;9.168;2023-04-26T00:27:39;96907.25;;;5.19;88.50
55263;BME280;41125;48.752;9.168;2023-04-26T00:28:12;96912.06;;;5.17;88.41
55263;BME280;41125;48.752;9.168;2023-04-26T00:28:43;96905.06;;;5.16;88.75
55263;BME280;41125;48.752;9.168;2023-04-26T00:29:15;96906.69;;;5.17;88.49
55263;BME280;41125;48.752;9.168;2023-04-26T00:29:47;96911.00;;;5.18;88.52
55263;BME280;41125;48.752;9.168;2023-04-26T00:30:18;96911.00;;;5.18;88.57
55263;BME280;41125;48.752;9.168;2023-04-26T00:30:50;96907.75;;;5.16;88.53
55263;BME280;41125;48.752;9.168;2023-04-26T00:31:22;96901.81;;;5.14;87.82
55263;BME280;41125;48.752;9.168;2023-04-26T00:31:53;96907.19;;;5.14;88.07
55263;BME280;41125;48.752;9.168;2023-04-26T00:32:25;96901.81;;;5.14;88.24
55263;BME280;41125;48.752;9.168;2023-04-26T00:32:57;96905.59;;;5.13;88.80
55263;BME280;41125;48.752;9.168;2023-04-26T00:33:28;96908.53;;;5.12;88.48
55263;BME280;41125;48.752;9.168;2023-04-26T00:34:00;96904.97;;;5.06;87.19
55263;BME280;41125;48.752;9.168;2023-04-26T00:34:35;96907.37;;;5.02;87.12
55263;BME280;41125;48.752;9.168;2023-04-26T00:35:07;96902.81;;;5.03;87.37
55263;BME280;41125;48.752;9.168;2023-04-26T00:35:39;96903.06;;;5.01;87.34
55263;BME280;41125;48.752;9.168;2023-04-26T00:36:12;96906.00;;;5.00;87.05
55263;BME280;41125;48.752;9.168;2023-04-26T00:36:44;96900.63;;;5.00;87.66
55263;BME280;41125;48.752;9.168;2023-04-26T00:37:15;96906.81;;;5.00;87.45
55263;BME280;41125;48.752;9.168;2023-04-26T00:37:47;96903.88;;;5.02;87.84
55263;BME280;41125;48.752;9.168;2023-04-26T00:38:18;96900.13;;;5.03;87.51
55263;BME280;41125;48.752;9.168;2023-04-26T00:38:49;96905.50;;;5.03;87.10
55263;BME280;41125;48.752;9.168;2023-04-26T00:39:21;96902.81;;;5.03;85.28
55263;BME280;41125;48.752;9.168;2023-04-26T00:39:52;96907.13;;;5.04;85.76
55263;BME280;41125;48.752;9.168;2023-04-26T00:40:23;96903.38;;;5.05;85.75
55263;BME280;41125;48.752;9.168;2023-04-26T00:40:54;96904.16;;;5.05;85.61
55263;BME280;41125;48.752;9.168;2023-04-26T00:41:26;96906.06;;;5.05;84.54
55263;BME280;41125;48.752;9.168;2023-04-26T00:41:58;96900.13;;;5.03;84.99
55263;BME280;41125;48.752;9.168;2023-04-26T00:42:29;96904.69;;;5.02;85.01
55263;BME280;41125;48.752;9.168;2023-04-26T00:43:02;96899.31;;;5.02;85.56
55263;BME280;41125;48.752;9.168;2023-04-26T00:43:33;96901.75;;;5.04;85.48
55263;BME280;41125;48.752;9.168;2023-04-26T00:44:05;96905.50;;;5.03;84.69
55263;BME280;41125;48.752;9.168;2023-04-26T00:44:39;96899.25;;;4.97;84.12
55263;BME280;41125;48.752;9.168;2023-04-26T00:45:12;96899.78;;;4.94;84.16
55263;BME280;41125;48.752;9.168;2023-04-26T00:45:47;96908.66;;;4.95;84.48
55263;BME280;41125;48.752;9.168;2023-04-26T00:46:19;96901.66;;;4.94;84.94
55263;BME280;41125;48.752;9.168;2023-04-26T00:46:52;96894.13;;;4.96;85.37
55263;BME280;41125;48.752;9.168;2023-04-26T00:47:24;96908.13;;;4.98;85.62
55263;BME280;41125;48.752;9.168;2023-04-26T00:47:57;96908.94;;;4.98;85.97
55263;BME280;41125;48.752;9.168;2023-04-26T00:48:31;96909.75;;;4.99;86.17
55263;BME280;41125;48.752;9.168;2023-04-26T00:49:03;96909.75;;;4.99;86.21
55263;BME280;41125;48.752;9.168;2023-04-26T00:49:35;96911.38;;;5.00;86.42
55263;BME280;41125;48.752;9.168;2023-04-26T00:50:07;96905.19;;;4.99;86.15
55263;BME280;41125;48.752;9.168;2023-04-26T00:50:38;96904.09;;;4.95;86.10
55263;BME280;41125;48.752;9.168;2023-04-26T00:51:10;96908.13;;;4.98;86.14
55263;BME280;41125;48.752;9.168;2023-04-26T00:51:43;96906.50;;;4.97;86.37
55263;BME280;41125;48.752;9.168;2023-04-26T00:52:15;96910.03;;;4.97;86.05
55263;BME280;41125;48.752;9.168;2023-04-26T00:52:47;96911.91;;;4.97;85.69
55263;BME280;41125;48.752;9.168;2023-04-26T00:53:19;96906.50;;;4.97;86.22
55263;BME280;41125;48.752;9.168;2023-04-26T00:53:52;96905.44;;;4.98;86.34
55263;BME280;41125;48.752;9.168;2023-04-26T00:54:24;96908.41;;;4.96;86.11
55263;BME280;41125;48.752;9.168;2023-04-26T00:54:55;96913.53;;;4.98;86.40
55263;BME280;41125;48.752;9.168;2023-04-26T00:55:27;96913.53;;;4.98;86.19
55263;BME280;41125;48.752;9.168;2023-04-26T00:55:59;96902.25;;;5.01;86.41
55263;BME280;41125;48.752;9.168;2023-04-26T00:56:32;96914.69;;;5.07;84.74
55263;BME280;41125;48.752;9.168;2023-04-26T00:57:03;96915.22;;;5.09;84.09
55263;BME280;41125;48.752;9.168;2023-04-26T00:57:38;96922.22;;;5.10;83.43
55263;BME280;41125;48.752;9.168;2023-04-26T00:58:13;96915.53;;;5.13;83.53
55263;BME280;41125;48.752;9.168;2023-04-26T00:58:44;96908.81;;;5.15;83.19
55263;BME280;41125;48.752;9.168;2023-04-26T00:59:18;96912.88;;;5.18;82.89
55263;BME280;41125;48.752;9.168;2023-04-26T00:59:50;96913.69;;;5.18;82.44
55263;BME280;41125;48.752;9.168;2023-04-26T01:00:22;96910.75;;;5.20;82.52
55263;BME280;41125;48.752;9.168;2023-04-26T01:00:53;96907.19;;;5.14;82.58
55263;BME280;41125;48.752;9.168;2023-04-26T01:01:25;96905.63;;;5.18;82.21
55263;BME280;41125;48.752;9.168;2023-04-26T01:01:56;96911.00;;;5.18;81.94
55263;BME280;41125;48.752;9.168;2023-04-26T01:02:27;96913.69;;;5.18;81.49
55263;BME280;41125;48.752;9.168;2023-04-26T01:02:59;96911.25;;;5.17;80.60
55263;BME280;41125;48.752;9.168;2023-04-26T01:03:30;96912.59;;;5.14;80.91
55263;BME280;41125;48.752;9.168;2023-04-26T01:04:02;96916.34;;;5.13;80.99
55263;BME280;41125;48.752;9.168;2023-04-26T01:04:38;96913.91;;;5.12;81.66
55263;BME280;41125;48.752;9.168;2023-04-26T01:05:13;96912.03;;;5.12;81.91
55263;BME280;41125;48.752;9.168;2023-04-26T01:05:45;96921.72;;;5.13;82.49
55263;BME280;41125;48.752;9.168;2023-04-26T01:06:16;96912.59;;;5.14;82.12
55263;BME280;41125;48.752;9.168;2023-04-26T01:06:47;96915.53;;;5.13;82.21
55263;BME280;41125;48.752;9.168;2023-04-26T01:07:19;96920.91;;;5.13;82.49
55263;BME280;41125;48.752;9.168;2023-04-26T01:07:51;96913.09;;;5.11;82.47
55263;BME280;41125;48.752;9.168;2023-04-26T01:08:23;96919.28;;;5.12;82.41
55263;BME280;41125;48.752;9.168;2023-04-26T01:08:58;96916.03;;;5.10;82.87
55263;BME280;41125;48.752;9.168;2023-04-26T01:09:31;96915.78;;;5.11;82.99
55263;BME280;41125;48.752;9.168;2023-04-26T01:10:05;96916.03;;;5.10;82.86
55263;BME280;41125;48.752;9.168;2023-04-26T01:10:37;96914.41;;;5.09;83.17
55263;BME280;41125;48.752;9.168;2023-04-26T01:11:11;96916.84;;;5.10;83.33
55263;BME280;41125;48.752;9.168;2023-04-26T01:11:43;96915.22;;;5.09;83.26
55263;BME280;41125;48.752;9.168;2023-04-26T01:12:15;96915.22;;;5.09;83.59
55263;BME280;41125;48.752;9.168;2023-04-26T01:12:47;96913.59;;;5.08;83.65
55263;BME280;41125;48.752;9.168;2023-04-26T01:13:19;96915.22;;;5.09;83.85
55263;BME280;41125;48.752;9.168;2023-04-26T01:13:52;96916.56;;;5.07;83.70
55263;BME280;41125;48.752;9.168;2023-04-26T01:14:23;96917.38;;;5.07;82.45
55263;BME280;41125;48.752;9.168;2023-04-26T01:14:56;96913.31;;;5.04;83.10
55263;BME280;41125;48.752;9.168;2023-04-26T01:15:27;96913.00;;;5.01;83.44
55263;BME280;41125;48.752;9.168;2023-04-26T01:16:01;96913.00;;;5.01;83.58
55263;BME280;41125;48.752;9.168;2023-04-26T01:16:33;96913.00;;;5.01;83.51
55263;BME280;41125;48.752;9.168;2023-04-26T01:17:05;96908.44;;;5.01;83.10
55263;BME280;41125;48.752;9.168;2023-04-26T01:17:39;96920.00;;;5.02;83.42
55263;BME280;41125;48.752;9.168;2023-04-26T01:18:11;96910.88;;;5.03;83.21
55263;BME280;41125;48.752;9.168;2023-04-26T01:18:50;96913.31;;;5.04;83.25
55263;BME280;41125;48.752;9.168;2023-04-26T01:19:22;96919.50;;;5.05;83.31
55263;BME280;41125;48.752;9.168;2023-04-26T01:19:53;96917.88;;;5.04;82.78
55263;BME280;41125;48.752;9.168;2023-04-26T01:20:25;96912.50;;;5.04;82.84
55263;BME280;41125;48.752;9.168;2023-04-26T01:20:56;96906.06;;;5.05;82.37
55263;BME280;41125;48.752;9.168;2023-04-26T01:21:29;96908.19;;;5.03;82.56
55263;BME280;41125;48.752;9.168;2023-04-26T01:22:00;96912.50;;;5.04;82.83
55263;BME280;41125;48.752;9.168;2023-04-26T01:22:34;96909.81;;;5.04;83.09
55263;BME280;41125;48.752;9.168;2023-04-26T01:23:06;96907.94;;;5.04;83.30
55263;BME280;41125;48.752;9.168;2023-04-26T01:23:39;96912.50;;;5.04;83.10
55263;BME280;41125;48.752;9.168;2023-04-26T01:24:12;96907.13;;;5.04;83.18
55263;BME280;41125;48.752;9.168;2023-04-26T01:24:45;96903.88;;;5.02;82.49
55263;BME280;41125;48.752;9.168;2023-04-26T01:25:18;96913.56;;;5.03;82.19
55263;BME280;41125;48.752;9.168;2023-04-26T01:25:50;96910.88;;;5.03;82.06
55263;BME280;41125;48.752;9.168;2023-04-26T01:26:21;96909.25;;;5.02;82.25
55263;BME280;41125;48.752;9.168;2023-04-26T01:26:53;96901.75;;;5.04;82.15
55263;BME280;41125;48.752;9.168;2023-04-26T01:27:27;96902.81;;;5.03;82.01
55263;BME280;41125;48.752;9.168;2023-04-26T01:27:59;96909.25;;;5.02;81.61
55263;BME280;41125;48.752;9.168;2023-04-26T01:28:36;96906.00;;;5.00;82.00
55263;BME280;41125;48.752;9.168;2023-04-26T01:29:16;96910.28;;;4.96;81.82
55263;BME280;41125;48.752;9.168;2023-04-26T01:29:48;96901.34;;;4.90;82.49
55263;BME280;41125;48.752;9.168;2023-04-26T01:30:19;96908.03;;;4.88;82.25
55263;BME280;41125;48.752;9.168;2023-04-26T01:30:51;96905.63;;;4.86;82.68
55263;BME280;41125;48.752;9.168;2023-04-26T01:31:23;96903.22;;;4.85;82.82
55263;BME280;41125;48.752;9.168;2023-04-26T01:31:54;96904.28;;;4.84;82.78
55263;BME280;41125;48.752;9.168;2023-04-26T01:32:25;96900.78;;;4.83;82.80
55263;BME280;41125;48.752;9.168;2023-04-26T01:32:56;96903.47;;;4.83;83.40
55263;BME280;41125;48.752;9.168;2023-04-26T01:33:28;96904.28;;;4.84;83.38
55263;BME280;41125;48.752;9.168;2023-04-26T01:33:59;96901.59;;;4.84;83.25
55263;BME280;41125;48.752;9.168;2023-04-26T01:34:30;96899.97;;;4.83;83.46
55263;BME280;41125;48.752;9.168;2023-04-26T01:35:06;96904.53;;;4.82;83.37
55263;BME280;41125;48.752;9.168;2023-04-26T01:35:39;96900.22;;;4.81;82.93
55263;BME280;41125;48.752;9.168;2023-04-26T01:36:11;96899.66;;;4.79;83.25
55263;BME280;41125;48.752;9.168;2023-04-26T01:36:43;96896.16;;;4.79;83.25
55263;BME280;41125;48.752;9.168;2023-04-26T01:37:15;96906.91;;;4.79;83.44
55263;BME280;41125;48.752;9.168;2023-04-26T01:37:47;96907.97;;;4.78;83.19
55263;BME280;41125;48.752;9.168;2023-04-26T01:38:18;96901.78;;;4.77;83.51
55263;BME280;41125;48.752;9.168;2023-04-26T01:38:50;96903.66;;;4.77;83.14
55263;BME280;41125;48.752;9.168;2023-04-26T01:39:21;96904.72;;;4.76;83.28
55263;BME280;41125;48.752;9.168;2023-04-26T01:39:53;96905.78;;;4.75;83.24
55263;BME280;41125;48.752;9.168;2023-04-26T01:40:24;96900.97;;;4.77;83.44
55263;BME280;41125;48.752;9.168;2023-04-26T01:40:55;96903.66;;;4.77;83.34
55263;BME280;41125;48.752;9.168;2023-04-26T01:41:27;96904.22;;;4.79;83.22
55263;BME280;41125;48.752;9.168;2023-04-26T01:41:59;96902.59;;;4.78;83.22
55263;BME280;41125;48.752;9.168;2023-04-26T01:42:30;96907.47;;;4.81;83.58
55263;BME280;41125;48.752;9.168;2023-04-26T01:43:02;96907.47;;;4.81;83.10
55263;BME280;41125;48.752;9.168;2023-04-26T01:43:34;96902.09;;;4.81;83.00
55263;BME280;41125;48.752;9.168;2023-04-26T01:44:07;96910.72;;;4.83;83.05
55263;BME280;41125;48.752;9.168;2023-04-26T01:44:38;96912.34;;;4.84;82.89
55263;BME280;41125;48.752;9.168;2023-04-26T01:45:10;96906.16;;;4.83;82.49
55263;BME280;41125;48.752;9.168;2023-04-26T01:45:41;96908.03;;;4.88;82.90
55263;BME280;41125;48.752;9.168;2023-04-26T01:46:16;96902.72;;;4.93;81.75
55263;BME280;41125;48.752;9.168;2023-04-26T01:46:47;96905.41;;;4.93;80.92
55263;BME280;41125;48.752;9.168;2023-04-26T01:47:18;96910.22;;;4.91;80.10
55263;BME280;41125;48.752;9.168;2023-04-26T01:47:53;96908.03;;;4.88;80.26
55263;BME280;41125;48.752;9.168;2023-04-26T01:48:24;96905.34;;;4.83;80.88
55263;BME280;41125;48.752;9.168;2023-04-26T01:48:55;96907.16;;;4.77;81.13
55263;BME280;41125;48.752;9.168;2023-04-26T01:49:27;96909.56;;;4.74;81.83
55263;BME280;41125;48.752;9.168;2023-04-26T01:49:59;96909.00;;;4.71;82.35
55263;BME280;41125;48.752;9.168;2023-04-26T01:50:30;96909.50;;;4.68;82.85
55263;BME280;41125;48.752;9.168;2023-04-26T01:51:03;96903.00;;;4.64;82.62
55263;BME280;41125;48.752;9.168;2023-04-26T01:51:36;96907.81;;;4.62;82.75
55263;BME280;41125;48.752;9.168;2023-04-26T01:52:07;96904.63;;;4.65;82.72
55263;BME280;41125;48.752;9.168;2023-04-26T01:52:38;96910.81;;;4.66;82.46
55263;BME280;41125;48.752;9.168;2023-04-26T01:53:10;96910.00;;;4.65;81.58
55263;BME280;41125;48.752;9.168;2023-04-26T01:53:41;96909.44;;;4.63;81.62
55263;BME280;41125;48.752;9.168;2023-04-26T01:54:12;96903.00;;;4.64;82.24
55263;BME280;41125;48.752;9.168;2023-04-26T01:54:43;96907.31;;;4.65;81.71
55263;BME280;41125;48.752;9.168;2023-04-26T01:55:15;96899.25;;;4.65;81.93
55263;BME280;41125;48.752;9.168;2023-04-26T01:55:48;96910.81;;;4.66;81.80
55263;BME280;41125;48.752;9.168;2023-04-26T01:56:19;96907.88;;;4.67;82.02
55263;BME280;41125;48.752;9.168;2023-04-26T01:56:51;96907.88;;;4.67;81.61
55263;BME280;41125;48.752;9.168;2023-04-26T01:57:22;96906.00;;;4.68;81.01
55263;BME280;41125;48.752;9.168;2023-04-26T01:57:53;96906.00;;;4.68;81.27
55263;BME280;41125;48.752;9.168;2023-04-26T01:58:25;96908.94;;;4.66;81.42
55263;BME280;41125;48.752;9.168;2023-04-26T01:58:57;96911.63;;;4.66;81.33
55263;BME280;41125;48.752;9.168;2023-04-26T01:59:29;96904.63;;;4.65;81.45
55263;BME280;41125;48.752;9.168;2023-04-26T02:00:01;96910.00;;;4.65;81.91
55263;BME280;41125;48.752;9.168;2023-04-26T02:00:32;96904.31;;;4.62;81.85
55263;BME280;41125;48.752;9.168;2023-04-26T02:01:06;96910.50;;;4.62;81.90
55263;BME280;41125;48.752;9.168;2023-04-26T02:01:40;96900.28;;;4.59;82.36
55263;BME280;41125;48.752;9.168;2023-04-26T02:02:14;96903.22;;;4.58;82.32
55263;BME280;41125;48.752;9.168;2023-04-26T02:02:47;96904.53;;;4.55;82.96
55263;BME280;41125;48.752;9.168;2023-04-26T02:03:18;96901.03;;;4.55;82.81
55263;BME280;41125;48.752;9.168;2023-04-26T02:03:49;96905.09;;;4.57;83.19
55263;BME280;41125;48.752;9.168;2023-04-26T02:04:21;96902.41;;;4.57;83.11
55263;BME280;41125;48.752;9.168;2023-04-26T02:04:53;96904.03;;;4.58;82.63
55263;BME280;41125;48.752;9.168;2023-04-26T02:05:26;96909.91;;;4.55;82.47
55263;BME280;41125;48.752;9.168;2023-04-26T02:05:58;96903.41;;;4.51;82.93
55263;BME280;41125;48.752;9.168;2023-04-26T02:06:29;96901.25;;;4.48;83.12
55263;BME280;41125;48.752;9.168;2023-04-26T02:07:02;96898.56;;;4.48;82.85
55263;BME280;41125;48.752;9.168;2023-04-26T02:07:33;96901.00;;;4.50;82.58
55263;BME280;41125;48.752;9.168;2023-04-26T02:08:09;96898.81;;;4.47;82.56
55263;BME280;41125;48.752;9.168;2023-04-26T02:08:40;96899.06;;;4.45;82.53
55263;BME280;41125;48.752;9.168;2023-04-26T02:09:15;96898.25;;;4.45;83.00
55263;BME280;41125;48.752;9.168;2023-04-26T02:09:46;96902.81;;;4.44;83.22
55263;BME280;41125;48.752;9.168;2023-04-26T02:10:17;96895.81;;;4.43;83.30
55263;BME280;41125;48.752;9.168;2023-04-26T02:10:49;96898.25;;;4.45;83.42
55263;BME280;41125;48.752;9.168;2023-04-26T02:11:20;96899.06;;;4.45;83.75
55263;BME280;41125;48.752;9.168;2023-04-26T02:11:52;96900.94;;;4.45;83.41
55263;BME280;41125;48.752;9.168;2023-04-26T02:12:24;96895.28;;;4.41;82.67
55263;BME280;41125;48.752;9.168;2023-04-26T02:12:57;96900.91;;;4.40;83.40
55263;BME280;41125;48.752;9.168;2023-04-26T02:13:30;96887.72;;;4.38;83.90
55263;BME280;41125;48.752;9.168;2023-04-26T02:14:01;96894.97;;;4.37;83.99
55263;BME280;41125;48.752;9.168;2023-04-26T02:14:33;96895.78;;;4.38;84.59
55263;BME280;41125;48.752;9.168;2023-04-26T02:15:05;96899.28;;;4.38;84.37
55263;BME280;41125;48.752;9.168;2023-04-26T02:15:36;96892.03;;;4.39;84.18
55263;BME280;41125;48.752;9.168;2023-04-26T02:16:07;96891.47;;;4.37;83.92
55263;BME280;41125;48.752;9.168;2023-04-26T02:16:42;96898.16;;;4.34;83.18
55263;BME280;41125;48.752;9.168;2023-04-26T02:17:13;96895.72;;;4.33;83.82
55263;BME280;41125;48.752;9.168;2023-04-26T02:17:44;96891.97;;;4.34;83.87
55263;BME280;41125;48.752;9.168;2023-04-26T02:18:16;96893.59;;;4.35;83.94
55263;BME280;41125;48.752;9.168;2023-04-26T02:18:51;96896.53;;;4.33;83.98
55263;BME280;41125;48.752;9.168;2023-04-26T02:19:23;96887.09;;;4.31;84.13
55263;BME280;41125;48.752;9.168;2023-04-26T02:19:54;96896.22;;;4.30;84.48
55263;BME280;41125;48.752;9.168;2023-04-26T02:20:26;96896.22;;;4.30;84.08
55263;BME280;41125;48.752;9.168;2023-04-26T02:20:58;96898.91;;;4.30;84.41
55263;BME280;41125;48.752;9.168;2023-04-26T02:21:30;96891.34;;;4.27;83.70
55263;BME280;41125;48.752;9.168;2023-04-26T02:22:04;96893.47;;;4.25;84.13
55263;BME280;41125;48.752;9.168;2023-04-26T02:22:36;96895.09;;;4.26;83.90
55263;BME280;41125;48.752;9.168;2023-04-26T02:23:08;96901.28;;;4.26;84.09
55263;BME280;41125;48.752;9.168;2023-04-26T02:23:40;96895.09;;;4.26;84.01
55263;BME280;41125;48.752;9.168;2023-04-26T02:24:11;96894.53;;;4.24;84.47
55263;BME280;41125;48.752;9.168;2023-04-26T02:24:42;96898.28;;;4.23;84.31
55263;BME280;41125;48.752;9.168;2023-04-26T02:25:13;96889.41;;;4.22;84.56
55263;BME280;41125;48.752;9.168;2023-04-26T02:25:46;96895.03;;;4.21;84.38
55263;BME280;41125;48.752;9.168;2023-04-26T02:26:19;96892.59;;;4.19;84.81
55263;BME280;41125;48.752;9.168;2023-04-26T02:26:50;96895.00;;;4.16;84.79
55263;BME280;41125;48.752;9.168;2023-04-26T02:27:23;96891.50;;;4.15;84.80
55263;BME280;41125;48.752;9.168;2023-04-26T02:27:55;96895.50;;;4.13;85.28
55263;BME280;41125;48.752;9.168;2023-04-26T02:28:27;96898.19;;;4.13;85.89
55263;BME280;41125;48.752;9.168;2023-04-26T02:28:58;96895.19;;;4.09;86.22
55263;BME280;41125;48.752;9.168;2023-04-26T02:29:30;96893.00;;;4.06;86.74
55263;BME280;41125;48.752;9.168;2023-04-26T02:30:03;96896.75;;;4.05;86.58
55263;BME280;41125;48.752;9.168;2023-04-26T02:30:34;96895.38;;;4.02;87.24
55263;BME280;41125;48.752;9.168;2023-04-26T02:31:05;96894.25;;;3.98;87.72
55263;BME280;41125;48.752;9.168;2023-04-26T02:31:37;96894.75;;;3.95;87.37
55263;BME280;41125;48.752;9.168;2023-04-26T02:32:08;96894.75;;;3.95;87.39
55263;BME280;41125;48.752;9.168;2023-04-26T02:32:39;96895.25;;;3.92;87.30
55263;BME280;41125;48.752;9.168;2023-04-26T02:33:11;96896.31;;;3.91;87.14
55263;BME280;41125;48.752;9.168;2023-04-26T02:33:42;96895.25;;;3.92;87.43
55263;BME280;41125;48.752;9.168;2023-04-26T02:34:13;96895.25;;;3.92;87.05
55263;BME280;41125;48.752;9.168;2023-04-26T02:34:44;96898.50;;;3.94;87.38
55263;BME280;41125;48.752;9.168;2023-04-26T02:35:19;96899.56;;;3.93;87.27
55263;BME280;41125;48.752;9.168;2023-04-26T02:35:51;96900.63;;;3.92;87.40
55263;BME280;41125;48.752;9.168;2023-04-26T02:36:24;96900.06;;;3.90;87.24
55263;BME280;41125;48.752;9.168;2023-04-26T02:36:55;96900.31;;;3.89;87.19
55263;BME280;41125;48.752;9.168;2023-04-26T02:37:27;96903.25;;;3.87;87.66
55263;BME280;41125;48.752;9.168;2023-04-26T02:37:58;96897.88;;;3.87;87.77
55263;BME280;41125;48.752;9.168;2023-04-26T02:38:29;96900.81;;;3.86;88.14
55263;BME280;41125;48.752;9.168;2023-04-26T02:39:00;96902.12;;;3.83;88.39
55263;BME280;41125;48.752;9.168;2023-04-26T02:39:32;96901.31;;;3.83;88.20
55263;BME280;41125;48.752;9.168;2023-04-26T02:40:04;96903.75;;;3.84;88.46
55263;BME280;41125;48.752;9.168;2023-04-26T02:40:36;96904.78;;;3.83;89.21
55263;BME280;41125;48.752;9.168;2023-04-26T02:41:07;96909.59;;;3.81;88.96
55263;BME280;41125;48.752;9.168;2023-04-26T02:41:38;96902.62;;;3.80;89.38
55263;BME280;41125;48.752;9.168;2023-04-26T02:42:10;96901.81;;;3.80;89.43
55263;BME280;41125;48.752;9.168;2023-04-26T02:42:41;96908.00;;;3.80;89.66
55263;BME280;41125;48.752;9.168;2023-04-26T02:43:12;96904.75;;;3.78;89.57
55263;BME280;41125;48.752;9.168;2023-04-26T02:43:45;96908.50;;;3.77;89.48
55263;BME280;41125;48.752;9.168;2023-04-26T02:44:17;96912.00;;;3.78;89.56
55263;BME280;41125;48.752;9.168;2023-04-26T02:44:48;96903.94;;;3.78;89.83
55263;BME280;41125;48.752;9.168;2023-04-26T02:45:19;96904.75;;;3.78;89.84
55263;BME280;41125;48.752;9.168;2023-04-26T02:45:51;96911.22;;;3.82;89.89
55263;BME280;41125;48.752;9.168;2023-04-26T02:46:23;96909.09;;;3.84;89.55
55263;BME280;41125;48.752;9.168;2023-04-26T02:46:54;96911.53;;;3.86;89.89
55263;BME280;41125;48.752;9.168;2023-04-26T02:47:26;96907.00;;;3.86;90.27
55263;BME280;41125;48.752;9.168;2023-04-26T02:47:57;96905.38;;;3.85;90.17
55263;BME280;41125;48.752;9.168;2023-04-26T02:48:28;96905.38;;;3.85;90.26
55263;BME280;41125;48.752;9.168;2023-04-26T02:48:59;96908.59;;;3.87;89.87
55263;BME280;41125;48.752;9.168;2023-04-26T02:49:31;96906.50;;;3.89;90.01
55263;BME280;41125;48.752;9.168;2023-04-26T02:50:06;96906.00;;;3.92;89.59
55263;BME280;41125;48.752;9.168;2023-04-26T02:50:37;96901.75;;;3.96;89.78
55263;BME280;41125;48.752;9.168;2023-04-26T02:51:09;96910.38;;;3.98;89.63
55263;BME280;41125;48.752;9.168;2023-04-26T02:51:40;96902.88;;;4.00;89.33
55263;BME280;41125;48.752;9.168;2023-04-26T02:52:11;96912.31;;;4.03;89.08
55263;BME280;41125;48.752;9.168;2023-04-26T02:52:45;96907.75;;;4.03;89.65
55263;BME280;41125;48.752;9.168;2023-04-26T02:53:16;96903.19;;;4.04;89.84